Edgewater, Maryland
Current Conditions -  °F | °C
As of 11:54 PM on Saturday 22 Nov 2014 (Local Time) from KNAK Reporting Station
Broken Clouds Broken Clouds  
Wind Chill: 41°   Ceiling: 12000
Heat Index: 44°   Visibility: 10mi
Dew Point: 18°   Wind: 6mph
Humidity: 35%   Direction: 190°S
Pressure: 30.27"   Gusts: NA
Location:  38.96°N, 76.55°W
Report Text: KNAK 230454Z AUTO 19005KT 10SM BKN120 07/M08 A3027 RMK AO2 SLP251 T00671078 400941050
Loading
Personal Weather Stations






























Interactive Weather Map New forecast layout! Learn more

10-Day Weather Forecast

Advertisements
Track Severe Weather on mobile